sensor_id;sensor_type;location;lat;lon;timestamp;pressure;altitude;pressure_sealevel;temperature
82297;BMP280;71899;51.992;8.648;2024-03-07T00:00:28;101239.94;;;4.66
82297;BMP280;71899;51.992;8.648;2024-03-07T00:02:53;101238.72;;;4.82
82297;BMP280;71899;51.992;8.648;2024-03-07T00:05:20;101237.25;;;5.08
82297;BMP280;71899;51.992;8.648;2024-03-07T00:07:47;101239.16;;;4.99
82297;BMP280;71899;51.992;8.648;2024-03-07T00:10:13;101237.28;;;4.69
82297;BMP280;71899;51.992;8.648;2024-03-07T00:12:40;101227.41;;;4.46
82297;BMP280;71899;51.992;8.648;2024-03-07T00:15:09;101233.19;;;4.19
82297;BMP280;71899;51.992;8.648;2024-03-07T00:17:36;101233.19;;;4.19
82297;BMP280;71899;51.992;8.648;2024-03-07T00:20:02;101227.16;;;4.19
82297;BMP280;71899;51.992;8.648;2024-03-07T00:22:29;101232.22;;;4.23
82297;BMP280;71899;51.992;8.648;2024-03-07T00:24:55;101237.94;;;3.96
82297;BMP280;71899;51.992;8.648;2024-03-07T00:27:21;101229.56;;;3.83
82297;BMP280;71899;51.992;8.648;2024-03-07T00:29:48;101238.47;;;3.69
82297;BMP280;71899;51.992;8.648;2024-03-07T00:32:20;101242.63;;;3.76
82297;BMP280;71899;51.992;8.648;2024-03-07T00:34:47;101243.47;;;3.78
82297;BMP280;71899;51.992;8.648;2024-03-07T00:37:12;101243.94;;;3.50
82297;BMP280;71899;51.992;8.648;2024-03-07T00:39:38;101243.19;;;3.45
82297;BMP280;71899;51.992;8.648;2024-03-07T00:42:03;101244.13;;;3.40
82297;BMP280;71899;51.992;8.648;2024-03-07T00:44:28;101241.66;;;3.32
82297;BMP280;71899;51.992;8.648;2024-03-07T00:46:54;101243.44;;;3.30
82297;BMP280;71899;51.992;8.648;2024-03-07T00:49:19;101243.56;;;3.24
82297;BMP280;71899;51.992;8.648;2024-03-07T00:51:45;101248.03;;;3.13
82297;BMP280;71899;51.992;8.648;2024-03-07T00:54:11;101233.97;;;3.29
82297;BMP280;71899;51.992;8.648;2024-03-07T00:56:38;101239.81;;;3.40
82297;BMP280;71899;51.992;8.648;2024-03-07T00:59:04;101244.19;;;3.35
82297;BMP280;71899;51.992;8.648;2024-03-07T01:01:30;101240.84;;;3.30
82297;BMP280;71899;51.992;8.648;2024-03-07T01:03:56;101245.50;;;3.09
82297;BMP280;71899;51.992;8.648;2024-03-07T01:06:22;101241.56;;;2.85
82297;BMP280;71899;51.992;8.648;2024-03-07T01:08:47;101239.16;;;2.73
82297;BMP280;71899;51.992;8.648;2024-03-07T01:11:12;101236.63;;;2.70
82297;BMP280;71899;51.992;8.648;2024-03-07T01:13:39;101241.22;;;2.49
82297;BMP280;71899;51.992;8.648;2024-03-07T01:16:05;101240.41;;;2.44
82297;BMP280;71899;51.992;8.648;2024-03-07T01:18:31;101237.75;;;2.50
82297;BMP280;71899;51.992;8.648;2024-03-07T01:21:03;101238.34;;;2.69
82297;BMP280;71899;51.992;8.648;2024-03-07T01:23:29;101231.41;;;2.71
82297;BMP280;71899;51.992;8.648;2024-03-07T01:25:58;101228.63;;;2.88
82297;BMP280;71899;51.992;8.648;2024-03-07T01:28:24;101229.38;;;2.94
82297;BMP280;71899;51.992;8.648;2024-03-07T01:30:50;101230.44;;;2.80
82297;BMP280;71899;51.992;8.648;2024-03-07T01:33:16;101226.09;;;2.83
82297;BMP280;71899;51.992;8.648;2024-03-07T01:35:41;101220.00;;;2.86
82297;BMP280;71899;51.992;8.648;2024-03-07T01:38:06;101219.91;;;2.32
82297;BMP280;71899;51.992;8.648;2024-03-07T01:40:34;101216.97;;;1.91
82297;BMP280;71899;51.992;8.648;2024-03-07T01:43:01;101224.50;;;2.08
82297;BMP280;71899;51.992;8.648;2024-03-07T01:45:26;101218.44;;;2.12
82297;BMP280;71899;51.992;8.648;2024-03-07T01:47:52;101212.91;;;1.70
82297;BMP280;71899;51.992;8.648;2024-03-07T01:50:17;101212.69;;;1.91
82297;BMP280;71899;51.992;8.648;2024-03-07T01:52:44;101211.88;;;1.86
82297;BMP280;71899;51.992;8.648;2024-03-07T01:55:10;101206.53;;;2.03
82297;BMP280;71899;51.992;8.648;2024-03-07T01:57:40;101211.63;;;2.08
82297;BMP280;71899;51.992;8.648;2024-03-07T02:02:42;101207.81;;;2.36
82297;BMP280;71899;51.992;8.648;2024-03-07T02:05:07;101202.88;;;2.21
82297;BMP280;71899;51.992;8.648;2024-03-07T02:07:33;101206.28;;;2.23
82297;BMP280;71899;51.992;8.648;2024-03-07T02:10:05;101204.00;;;1.98
82297;BMP280;71899;51.992;8.648;2024-03-07T02:12:31;101203.34;;;1.80
82297;BMP280;71899;51.992;8.648;2024-03-07T02:14:57;101198.31;;;1.68
82297;BMP280;71899;51.992;8.648;2024-03-07T02:17:25;101198.44;;;1.59
82297;BMP280;71899;51.992;8.648;2024-03-07T02:19:51;101194.09;;;1.64
82297;BMP280;71899;51.992;8.648;2024-03-07T02:22:18;101196.56;;;1.73
82297;BMP280;71899;51.992;8.648;2024-03-07T02:24:43;101193.91;;;1.80
82297;BMP280;71899;51.992;8.648;2024-03-07T02:27:10;101192.00;;;1.94
82297;BMP280;71899;51.992;8.648;2024-03-07T02:29:35;101191.03;;;2.05
82297;BMP280;71899;51.992;8.648;2024-03-07T02:32:02;101185.88;;;2.06
82297;BMP280;71899;51.992;8.648;2024-03-07T02:34:27;101183.31;;;2.03
82297;BMP280;71899;51.992;8.648;2024-03-07T02:36:53;101184.00;;;2.14
82297;BMP280;71899;51.992;8.648;2024-03-07T02:39:18;101178.00;;;2.15
82297;BMP280;71899;51.992;8.648;2024-03-07T02:41:43;101183.06;;;2.24
82297;BMP280;71899;51.992;8.648;2024-03-07T02:44:09;101182.28;;;2.16
82297;BMP280;71899;51.992;8.648;2024-03-07T02:46:34;101178.91;;;2.11
82297;BMP280;71899;51.992;8.648;2024-03-07T02:48:59;101177.34;;;1.96
82297;BMP280;71899;51.992;8.648;2024-03-07T02:51:25;101174.09;;;1.85
82297;BMP280;71899;51.992;8.648;2024-03-07T02:53:50;101182.03;;;1.66
82297;BMP280;71899;51.992;8.648;2024-03-07T02:56:16;101179.56;;;1.57
82297;BMP280;71899;51.992;8.648;2024-03-07T02:58:41;101183.91;;;1.50
82297;BMP280;71899;51.992;8.648;2024-03-07T03:01:07;101182.13;;;1.55
82297;BMP280;71899;51.992;8.648;2024-03-07T03:03:32;101187.44;;;1.41
82297;BMP280;71899;51.992;8.648;2024-03-07T03:05:58;101183.19;;;1.37
82297;BMP280;71899;51.992;8.648;2024-03-07T03:08:24;101188.44;;;1.28
82297;BMP280;71899;51.992;8.648;2024-03-07T03:10:49;101184.28;;;1.08
82297;BMP280;71899;51.992;8.648;2024-03-07T03:13:16;101185.16;;;1.10
82297;BMP280;71899;51.992;8.648;2024-03-07T03:15:42;101181.66;;;1.17
82297;BMP280;71899;51.992;8.648;2024-03-07T03:18:07;101183.25;;;1.31
82297;BMP280;71899;51.992;8.648;2024-03-07T03:20:33;101184.13;;;1.26
82297;BMP280;71899;51.992;8.648;2024-03-07T03:23:07;101172.06;;;1.31
82297;BMP280;71899;51.992;8.648;2024-03-07T03:25:36;101178.22;;;1.15
82297;BMP280;71899;51.992;8.648;2024-03-07T03:28:04;101174.13;;;0.95
82297;BMP280;71899;51.992;8.648;2024-03-07T03:30:29;101178.31;;;1.04
82297;BMP280;71899;51.992;8.648;2024-03-07T03:32:55;101174.88;;;1.04
82297;BMP280;71899;51.992;8.648;2024-03-07T03:35:20;101176.50;;;1.17
82297;BMP280;71899;51.992;8.648;2024-03-07T03:37:46;101173.94;;;1.17
82297;BMP280;71899;51.992;8.648;2024-03-07T03:40:11;101174.75;;;1.19
82297;BMP280;71899;51.992;8.648;2024-03-07T03:42:41;101169.50;;;1.29
82297;BMP280;71899;51.992;8.648;2024-03-07T03:45:08;101172.13;;;1.28
82297;BMP280;71899;51.992;8.648;2024-03-07T03:47:37;101173.94;;;1.17
82297;BMP280;71899;51.992;8.648;2024-03-07T03:50:07;101171.47;;;1.03
82297;BMP280;71899;51.992;8.648;2024-03-07T03:52:33;101168.88;;;1.05
82297;BMP280;71899;51.992;8.648;2024-03-07T03:55:00;101170.75;;;0.83
82297;BMP280;71899;51.992;8.648;2024-03-07T03:57:27;101168.91;;;1.00
82297;BMP280;71899;51.992;8.648;2024-03-07T03:59:52;101173.31;;;0.87
82297;BMP280;71899;51.992;8.648;2024-03-07T04:02:18;101173.41;;;0.77
82297;BMP280;71899;51.992;8.648;2024-03-07T04:04:44;101166.28;;;1.05
82297;BMP280;71899;51.992;8.648;2024-03-07T04:07:11;101166.38;;;0.95
82297;BMP280;71899;51.992;8.648;2024-03-07T04:09:37;101169.22;;;0.58
82297;BMP280;71899;51.992;8.648;2024-03-07T04:12:02;101167.50;;;0.58
82297;BMP280;71899;51.992;8.648;2024-03-07T04:14:28;101161.50;;;0.64
82297;BMP280;71899;51.992;8.648;2024-03-07T04:16:57;101155.22;;;0.95
82297;BMP280;71899;51.992;8.648;2024-03-07T04:19:23;101160.22;;;1.13
82297;BMP280;71899;51.992;8.648;2024-03-07T04:21:48;101165.47;;;1.01
82297;BMP280;71899;51.992;8.648;2024-03-07T04:24:14;101169.16;;;0.71
82297;BMP280;71899;51.992;8.648;2024-03-07T04:26:39;101174.44;;;0.47
82297;BMP280;71899;51.992;8.648;2024-03-07T04:29:07;101175.44;;;0.23
82297;BMP280;71899;51.992;8.648;2024-03-07T04:31:34;101172.84;;;0.26
82297;BMP280;71899;51.992;8.648;2024-03-07T04:33:59;101171.03;;;0.45
82297;BMP280;71899;51.992;8.648;2024-03-07T04:36:24;101167.50;;;0.61
82297;BMP280;71899;51.992;8.648;2024-03-07T04:38:49;101163.94;;;0.82
82297;BMP280;71899;51.992;8.648;2024-03-07T04:41:16;101168.97;;;0.94
82297;BMP280;71899;51.992;8.648;2024-03-07T04:43:42;101158.75;;;0.85
82297;BMP280;71899;51.992;8.648;2024-03-07T04:46:10;101160.41;;;0.92
82297;BMP280;71899;51.992;8.648;2024-03-07T04:48:35;101157.75;;;1.03
82297;BMP280;71899;51.992;8.648;2024-03-07T04:51:01;101158.41;;;1.24
82297;BMP280;71899;51.992;8.648;2024-03-07T04:53:26;101159.13;;;1.38
82297;BMP280;71899;51.992;8.648;2024-03-07T04:55:51;101151.44;;;1.35
82297;BMP280;71899;51.992;8.648;2024-03-07T04:58:17;101162.22;;;1.71
82297;BMP280;71899;51.992;8.648;2024-03-07T05:00:42;101151.44;;;2.09
82297;BMP280;71899;51.992;8.648;2024-03-07T05:03:07;101155.28;;;2.41
82297;BMP280;71899;51.992;8.648;2024-03-07T05:05:32;101142.03;;;2.64
82297;BMP280;71899;51.992;8.648;2024-03-07T05:07:58;101139.19;;;2.81
82297;BMP280;71899;51.992;8.648;2024-03-07T05:10:23;101134.91;;;2.78
82297;BMP280;71899;51.992;8.648;2024-03-07T05:12:49;101153.19;;;2.66
82297;BMP280;71899;51.992;8.648;2024-03-07T05:15:14;101152.63;;;3.01
82297;BMP280;71899;51.992;8.648;2024-03-07T05:17:40;101155.09;;;3.09
82297;BMP280;71899;51.992;8.648;2024-03-07T05:20:08;101156.06;;;3.00
82297;BMP280;71899;51.992;8.648;2024-03-07T05:22:38;101159.53;;;3.00
82297;BMP280;71899;51.992;8.648;2024-03-07T05:25:06;101163.69;;;3.09
82297;BMP280;71899;51.992;8.648;2024-03-07T05:27:32;101170.53;;;2.58
82297;BMP280;71899;51.992;8.648;2024-03-07T05:29:58;101174.78;;;2.62
82297;BMP280;71899;51.992;8.648;2024-03-07T05:32:25;101171.78;;;2.88
82297;BMP280;71899;51.992;8.648;2024-03-07T05:34:51;101170.41;;;3.18
82297;BMP280;71899;51.992;8.648;2024-03-07T05:37:16;101159.75;;;3.37
82297;BMP280;71899;51.992;8.648;2024-03-07T05:39:42;101159.69;;;3.42
82297;BMP280;71899;51.992;8.648;2024-03-07T05:42:07;101157.19;;;3.36
82297;BMP280;71899;51.992;8.648;2024-03-07T05:44:33;101154.25;;;3.56
82297;BMP280;71899;51.992;8.648;2024-03-07T05:46:58;101165.59;;;3.48
82297;BMP280;71899;51.992;8.648;2024-03-07T05:49:23;101159.63;;;3.43
82297;BMP280;71899;51.992;8.648;2024-03-07T05:51:49;101154.06;;;3.65
82297;BMP280;71899;51.992;8.648;2024-03-07T05:54:14;101162.53;;;3.73
82297;BMP280;71899;51.992;8.648;2024-03-07T05:56:40;101164.13;;;3.78
82297;BMP280;71899;51.992;8.648;2024-03-07T05:59:06;101159.81;;;3.79
82297;BMP280;71899;51.992;8.648;2024-03-07T06:01:35;101161.47;;;3.83
82297;BMP280;71899;51.992;8.648;2024-03-07T06:04:02;101154.28;;;3.97
82297;BMP280;71899;51.992;8.648;2024-03-07T06:06:28;101158.56;;;3.98
82297;BMP280;71899;51.992;8.648;2024-03-07T06:08:53;101161.31;;;3.90
82297;BMP280;71899;51.992;8.648;2024-03-07T06:11:19;101168.63;;;3.69
82297;BMP280;71899;51.992;8.648;2024-03-07T06:13:47;101164.84;;;3.86
82297;BMP280;71899;51.992;8.648;2024-03-07T06:16:12;101169.78;;;3.97
82297;BMP280;71899;51.992;8.648;2024-03-07T06:18:42;101159.84;;;4.20
82297;BMP280;71899;51.992;8.648;2024-03-07T06:21:07;101166.66;;;4.23
82297;BMP280;71899;51.992;8.648;2024-03-07T06:23:33;101162.50;;;4.16
82297;BMP280;71899;51.992;8.648;2024-03-07T06:25:59;101171.53;;;4.36
82297;BMP280;71899;51.992;8.648;2024-03-07T06:28:26;101170.75;;;4.33
82297;BMP280;71899;51.992;8.648;2024-03-07T06:30:54;101182.84;;;4.32
82297;BMP280;71899;51.992;8.648;2024-03-07T06:33:20;101184.09;;;4.53
82297;BMP280;71899;51.992;8.648;2024-03-07T06:35:46;101181.31;;;4.64
82297;BMP280;71899;51.992;8.648;2024-03-07T06:38:11;101172.31;;;4.78
82297;BMP280;71899;51.992;8.648;2024-03-07T06:40:38;101168.88;;;4.78
82297;BMP280;71899;51.992;8.648;2024-03-07T06:43:06;101174.09;;;4.76
82297;BMP280;71899;51.992;8.648;2024-03-07T06:45:32;101167.03;;;4.83
82297;BMP280;71899;51.992;8.648;2024-03-07T06:47:58;101174.16;;;4.73
82297;BMP280;71899;51.992;8.648;2024-03-07T06:50:23;101172.44;;;4.72
82297;BMP280;71899;51.992;8.648;2024-03-07T06:52:49;101169.78;;;4.75
82297;BMP280;71899;51.992;8.648;2024-03-07T06:55:15;101168.72;;;4.84
82297;BMP280;71899;51.992;8.648;2024-03-07T06:57:42;101168.66;;;4.87
82297;BMP280;71899;51.992;8.648;2024-03-07T07:00:09;101163.72;;;4.76
82297;BMP280;71899;51.992;8.648;2024-03-07T07:02:38;101167.56;;;4.60
82297;BMP280;71899;51.992;8.648;2024-03-07T07:05:07;101162.78;;;4.79
82297;BMP280;71899;51.992;8.648;2024-03-07T07:07:39;101167.09;;;4.80
82297;BMP280;71899;51.992;8.648;2024-03-07T07:10:05;101157.19;;;4.97
82297;BMP280;71899;51.992;8.648;2024-03-07T07:12:34;101147.91;;;5.22
82297;BMP280;71899;51.992;8.648;2024-03-07T07:15:00;101154.25;;;5.43
82297;BMP280;71899;51.992;8.648;2024-03-07T07:17:25;101157.50;;;5.51
82297;BMP280;71899;51.992;8.648;2024-03-07T07:19:54;101173.78;;;5.24
82297;BMP280;71899;51.992;8.648;2024-03-07T07:22:21;101179.03;;;4.85
82297;BMP280;71899;51.992;8.648;2024-03-07T07:24:46;101173.03;;;4.85
82297;BMP280;71899;51.992;8.648;2024-03-07T07:27:11;101172.09;;;5.23
82297;BMP280;71899;51.992;8.648;2024-03-07T07:29:37;101182.88;;;5.06
82297;BMP280;71899;51.992;8.648;2024-03-07T07:32:02;101175.66;;;4.83
82297;BMP280;71899;51.992;8.648;2024-03-07T07:34:27;101178.22;;;5.20
82297;BMP280;71899;51.992;8.648;2024-03-07T07:36:53;101178.34;;;5.14
82297;BMP280;71899;51.992;8.648;2024-03-07T07:39:18;101164.63;;;5.43
82297;BMP280;71899;51.992;8.648;2024-03-07T07:41:43;101167.03;;;5.50
82297;BMP280;71899;51.992;8.648;2024-03-07T07:44:09;101165.47;;;5.76
82297;BMP280;71899;51.992;8.648;2024-03-07T07:46:34;101170.78;;;6.04
82297;BMP280;71899;51.992;8.648;2024-03-07T07:49:01;101168.53;;;6.21
82297;BMP280;71899;51.992;8.648;2024-03-07T07:51:27;101181.47;;;6.22
82297;BMP280;71899;51.992;8.648;2024-03-07T07:53:52;101171.13;;;6.21
82297;BMP280;71899;51.992;8.648;2024-03-07T07:56:19;101158.94;;;5.93
82297;BMP280;71899;51.992;8.648;2024-03-07T07:58:45;101155.78;;;6.13
82297;BMP280;71899;51.992;8.648;2024-03-07T08:01:10;101165.00;;;6.23
82297;BMP280;71899;51.992;8.648;2024-03-07T08:03:35;101162.88;;;6.07
82297;BMP280;71899;51.992;8.648;2024-03-07T08:06:02;101163.06;;;5.70
82297;BMP280;71899;51.992;8.648;2024-03-07T08:08:27;101150.66;;;5.81
82297;BMP280;71899;51.992;8.648;2024-03-07T08:10:53;101160.69;;;5.93
82297;BMP280;71899;51.992;8.648;2024-03-07T08:13:18;101160.78;;;5.90
82297;BMP280;71899;51.992;8.648;2024-03-07T08:15:43;101157.69;;;6.07
82297;BMP280;71899;51.992;8.648;2024-03-07T08:18:09;101158.00;;;5.96
82297;BMP280;71899;51.992;8.648;2024-03-07T08:20:34;101155.13;;;5.43
82297;BMP280;71899;51.992;8.648;2024-03-07T08:23:00;101155.56;;;5.59
82297;BMP280;71899;51.992;8.648;2024-03-07T08:25:28;101154.44;;;5.68
82297;BMP280;71899;51.992;8.648;2024-03-07T08:27:55;101152.00;;;5.95
82297;BMP280;71899;51.992;8.648;2024-03-07T08:30:22;101149.09;;;6.06
82297;BMP280;71899;51.992;8.648;2024-03-07T08:32:51;101165.78;;;6.27
82297;BMP280;71899;51.992;8.648;2024-03-07T08:35:19;101155.84;;;5.81
82297;BMP280;71899;51.992;8.648;2024-03-07T08:37:47;101155.59;;;6.19
82297;BMP280;71899;51.992;8.648;2024-03-07T08:40:20;101157.34;;;6.19
82297;BMP280;71899;51.992;8.648;2024-03-07T08:42:47;101158.44;;;5.81
82297;BMP280;71899;51.992;8.648;2024-03-07T08:45:13;101150.66;;;5.79
82297;BMP280;71899;51.992;8.648;2024-03-07T08:47:42;101152.25;;;6.16
82297;BMP280;71899;51.992;8.648;2024-03-07T08:50:08;101160.88;;;6.45
82297;BMP280;71899;51.992;8.648;2024-03-07T08:52:35;101149.97;;;6.62
82297;BMP280;71899;51.992;8.648;2024-03-07T08:55:02;101146.38;;;6.92
82297;BMP280;71899;51.992;8.648;2024-03-07T08:57:28;101140.28;;;6.93
82297;BMP280;71899;51.992;8.648;2024-03-07T08:59:53;101136.47;;;7.28
82297;BMP280;71899;51.992;8.648;2024-03-07T09:02:19;101134.69;;;7.06
82297;BMP280;71899;51.992;8.648;2024-03-07T09:04:44;101139.41;;;7.19
82297;BMP280;71899;51.992;8.648;2024-03-07T09:07:09;101138.19;;;7.54
82297;BMP280;71899;51.992;8.648;2024-03-07T09:09:35;101132.00;;;7.57
82297;BMP280;71899;51.992;8.648;2024-03-07T09:12:01;101136.00;;;7.67
82297;BMP280;71899;51.992;8.648;2024-03-07T09:14:27;101132.91;;;7.80
82297;BMP280;71899;51.992;8.648;2024-03-07T09:16:53;101138.94;;;7.58
82297;BMP280;71899;51.992;8.648;2024-03-07T09:19:19;101137.19;;;7.58
82297;BMP280;71899;51.992;8.648;2024-03-07T09:21:48;101132.16;;;7.77
82297;BMP280;71899;51.992;8.648;2024-03-07T09:24:15;101140.03;;;7.98
82297;BMP280;71899;51.992;8.648;2024-03-07T09:26:41;101139.41;;;7.69
82297;BMP280;71899;51.992;8.648;2024-03-07T09:29:06;101139.03;;;7.55
82297;BMP280;71899;51.992;8.648;2024-03-07T09:31:32;101134.75;;;7.29
82297;BMP280;71899;51.992;8.648;2024-03-07T09:33:58;101131.22;;;7.05
82297;BMP280;71899;51.992;8.648;2024-03-07T09:36:24;101133.34;;;6.94
82297;BMP280;71899;51.992;8.648;2024-03-07T09:38:49;101134.72;;;7.04
82297;BMP280;71899;51.992;8.648;2024-03-07T09:41:15;101132.19;;;7.03
82297;BMP280;71899;51.992;8.648;2024-03-07T09:43:43;101135.56;;;7.05
82297;BMP280;71899;51.992;8.648;2024-03-07T09:46:12;101134.31;;;6.90
82297;BMP280;71899;51.992;8.648;2024-03-07T09:48:38;101140.75;;;7.31
82297;BMP280;71899;51.992;8.648;2024-03-07T09:51:04;101138.78;;;7.37
82297;BMP280;71899;51.992;8.648;2024-03-07T09:53:30;101138.94;;;7.58
82297;BMP280;71899;51.992;8.648;2024-03-07T09:55:55;101136.22;;;7.61
82297;BMP280;71899;51.992;8.648;2024-03-07T09:58:25;101136.06;;;7.16
82297;BMP280;71899;51.992;8.648;2024-03-07T10:00:51;101143.53;;;7.00
82297;BMP280;71899;51.992;8.648;2024-03-07T10:03:20;101143.63;;;7.23
82297;BMP280;71899;51.992;8.648;2024-03-07T10:05:47;101145.88;;;7.32
82297;BMP280;71899;51.992;8.648;2024-03-07T10:08:12;101143.50;;;7.51
82297;BMP280;71899;51.992;8.648;2024-03-07T10:10:39;101140.00;;;7.27
82297;BMP280;71899;51.992;8.648;2024-03-07T10:13:04;101137.50;;;7.24
82297;BMP280;71899;51.992;8.648;2024-03-07T10:15:31;101130.47;;;7.02
82297;BMP280;71899;51.992;8.648;2024-03-07T10:17:57;101144.22;;;6.79
82297;BMP280;71899;51.992;8.648;2024-03-07T10:20:22;101142.13;;;6.90
82297;BMP280;71899;51.992;8.648;2024-03-07T10:22:50;101140.59;;;6.57
82297;BMP280;71899;51.992;8.648;2024-03-07T10:25:19;101144.78;;;6.61
82297;BMP280;71899;51.992;8.648;2024-03-07T10:27:46;101139.03;;;6.79
82297;BMP280;71899;51.992;8.648;2024-03-07T10:30:14;101135.53;;;6.80
82297;BMP280;71899;51.992;8.648;2024-03-07T10:32:45;101135.09;;;7.18
82297;BMP280;71899;51.992;8.648;2024-03-07T10:35:11;101132.81;;;7.09
82297;BMP280;71899;51.992;8.648;2024-03-07T10:37:40;101137.78;;;7.17
82297;BMP280;71899;51.992;8.648;2024-03-07T10:40:06;101134.69;;;7.06
82297;BMP280;71899;51.992;8.648;2024-03-07T10:42:44;101140.84;;;7.28
82297;BMP280;71899;51.992;8.648;2024-03-07T10:45:11;101144.63;;;7.19
82297;BMP280;71899;51.992;8.648;2024-03-07T10:47:37;101134.09;;;7.22
82297;BMP280;71899;51.992;8.648;2024-03-07T10:51:10;101131.75;;;7.15
82297;BMP280;71899;51.992;8.648;2024-03-07T10:56:14;101129.06;;;7.18
82297;BMP280;71899;51.992;8.648;2024-03-07T11:01:25;101118.72;;;7.16
82297;BMP280;71899;51.992;8.648;2024-03-07T11:03:52;101123.81;;;7.44
82297;BMP280;71899;51.992;8.648;2024-03-07T11:06:17;101123.19;;;7.37
82297;BMP280;71899;51.992;8.648;2024-03-07T11:08:43;101130.25;;;7.57
82297;BMP280;71899;51.992;8.648;2024-03-07T11:11:09;101126.88;;;7.55
82297;BMP280;71899;51.992;8.648;2024-03-07T11:13:37;101121.56;;;7.09
82297;BMP280;71899;51.992;8.648;2024-03-07T11:16:04;101122.22;;;7.15
82297;BMP280;71899;51.992;8.648;2024-03-07T11:18:30;101112.97;;;7.31
82297;BMP280;71899;51.992;8.648;2024-03-07T11:20:56;101112.06;;;7.57
82297;BMP280;71899;51.992;8.648;2024-03-07T11:23:32;101112.19;;;7.77
82297;BMP280;71899;51.992;8.648;2024-03-07T11:26:10;101106.00;;;8.03
82297;BMP280;71899;51.992;8.648;2024-03-07T11:28:37;101102.22;;;8.12
82297;BMP280;71899;51.992;8.648;2024-03-07T11:31:27;101102.44;;;8.06
82297;BMP280;71899;51.992;8.648;2024-03-07T11:34:12;101100.81;;;7.80
82297;BMP280;71899;51.992;8.648;2024-03-07T11:36:45;101100.34;;;7.69
82297;BMP280;71899;51.992;8.648;2024-03-07T11:39:46;101099.59;;;7.42
82297;BMP280;71899;51.992;8.648;2024-03-07T11:42:30;101088.63;;;7.34
82297;BMP280;71899;51.992;8.648;2024-03-07T11:45:00;101085.75;;;7.65
82297;BMP280;71899;51.992;8.648;2024-03-07T11:47:37;101084.16;;;7.61
82297;BMP280;71899;51.992;8.648;2024-03-07T11:50:06;101088.78;;;7.77
82297;BMP280;71899;51.992;8.648;2024-03-07T11:52:38;101080.03;;;7.78
82297;BMP280;71899;51.992;8.648;2024-03-07T11:55:07;101067.00;;;8.02
82297;BMP280;71899;51.992;8.648;2024-03-07T11:57:33;101055.84;;;8.43
82297;BMP280;71899;51.992;8.648;2024-03-07T11:59:59;101047.94;;;8.66
82297;BMP280;71899;51.992;8.648;2024-03-07T12:02:38;101045.00;;;9.53
82297;BMP280;71899;51.992;8.648;2024-03-07T12:05:04;101036.94;;;9.39
82297;BMP280;71899;51.992;8.648;2024-03-07T12:07:31;101028.66;;;9.87
82297;BMP280;71899;51.992;8.648;2024-03-07T12:09:56;101018.22;;;10.41
82297;BMP280;71899;51.992;8.648;2024-03-07T12:12:22;101026.13;;;10.40
82297;BMP280;71899;51.992;8.648;2024-03-07T12:14:48;101032.66;;;9.75
82297;BMP280;71899;51.992;8.648;2024-03-07T12:17:16;101024.78;;;9.58
82297;BMP280;71899;51.992;8.648;2024-03-07T12:19:43;101017.75;;;9.96
82297;BMP280;71899;51.992;8.648;2024-03-07T12:22:09;101026.81;;;9.70
82297;BMP280;71899;51.992;8.648;2024-03-07T12:24:38;101016.84;;;9.78
82297;BMP280;71899;51.992;8.648;2024-03-07T12:29:31;101005.44;;;9.81
82297;BMP280;71899;51.992;8.648;2024-03-07T12:31:59;101004.56;;;9.43
82297;BMP280;71899;51.992;8.648;2024-03-07T12:34:25;100991.72;;;9.20
82297;BMP280;71899;51.992;8.648;2024-03-07T12:36:52;100998.13;;;9.13
82297;BMP280;71899;51.992;8.648;2024-03-07T12:39:24;100980.59;;;9.72
82297;BMP280;71899;51.992;8.648;2024-03-07T12:41:51;100983.69;;;9.80
82297;BMP280;71899;51.992;8.648;2024-03-07T12:44:20;100976.66;;;10.00
82297;BMP280;71899;51.992;8.648;2024-03-07T12:46:47;100977.25;;;9.87
82297;BMP280;71899;51.992;8.648;2024-03-07T12:49:13;100962.66;;;9.65
82297;BMP280;71899;51.992;8.648;2024-03-07T12:51:41;100966.69;;;10.08
82297;BMP280;71899;51.992;8.648;2024-03-07T12:54:07;100967.00;;;10.02
82297;BMP280;71899;51.992;8.648;2024-03-07T12:56:36;100969.09;;;9.76
82297;BMP280;71899;51.992;8.648;2024-03-07T12:59:05;100972.31;;;9.81
82297;BMP280;71899;51.992;8.648;2024-03-07T13:01:35;100951.88;;;10.08
82297;BMP280;71899;51.992;8.648;2024-03-07T13:04:02;100956.13;;;10.28
82297;BMP280;71899;51.992;8.648;2024-03-07T13:06:32;100962.94;;;10.66
82297;BMP280;71899;51.992;8.648;2024-03-07T13:08:58;100960.75;;;10.57
82297;BMP280;71899;51.992;8.648;2024-03-07T13:11:24;100957.81;;;10.63
82297;BMP280;71899;51.992;8.648;2024-03-07T13:13:53;100958.47;;;11.50
82297;BMP280;71899;51.992;8.648;2024-03-07T13:16:18;100933.66;;;11.41
82297;BMP280;71899;51.992;8.648;2024-03-07T13:18:43;100944.13;;;10.75
82297;BMP280;71899;51.992;8.648;2024-03-07T13:21:11;100948.41;;;10.26
82297;BMP280;71899;51.992;8.648;2024-03-07T13:23:36;100939.66;;;10.09
82297;BMP280;71899;51.992;8.648;2024-03-07T13:26:04;100949.09;;;10.47
82297;BMP280;71899;51.992;8.648;2024-03-07T13:28:33;100951.44;;;10.86
82297;BMP280;71899;51.992;8.648;2024-03-07T13:30:59;100941.09;;;11.00
82297;BMP280;71899;51.992;8.648;2024-03-07T13:33:24;100944.56;;;11.01
82297;BMP280;71899;51.992;8.648;2024-03-07T13:35:50;100928.63;;;11.21
82297;BMP280;71899;51.992;8.648;2024-03-07T13:38:19;100928.09;;;10.99
82297;BMP280;71899;51.992;8.648;2024-03-07T13:40:45;100921.22;;;11.29
82297;BMP280;71899;51.992;8.648;2024-03-07T13:43:10;100922.47;;;11.22
82297;BMP280;71899;51.992;8.648;2024-03-07T13:45:36;100934.13;;;10.83
82297;BMP280;71899;51.992;8.648;2024-03-07T13:48:05;100927.19;;;10.82
82297;BMP280;71899;51.992;8.648;2024-03-07T13:50:32;100925.50;;;10.99
82297;BMP280;71899;51.992;8.648;2024-03-07T13:52:59;100918.22;;;11.04
82297;BMP280;71899;51.992;8.648;2024-03-07T14:00:55;100904.31;;;11.34
82297;BMP280;71899;51.992;8.648;2024-03-07T14:03:41;100897.53;;;10.99
82297;BMP280;71899;51.992;8.648;2024-03-07T14:06:21;100903.81;;;10.79
82297;BMP280;71899;51.992;8.648;2024-03-07T14:09:13;100896.03;;;10.62
82297;BMP280;71899;51.992;8.648;2024-03-07T14:12:14;100904.63;;;10.64
82297;BMP280;71899;51.992;8.648;2024-03-07T14:18:01;100909.28;;;10.06
82297;BMP280;71899;51.992;8.648;2024-03-07T14:21:10;100904.03;;;9.89
82297;BMP280;71899;51.992;8.648;2024-03-07T14:27:10;100894.56;;;10.39
82297;BMP280;71899;51.992;8.648;2024-03-07T14:32:52;100882.34;;;10.06